createdAt,value
2019-05-29T00:00:30.598Z,0.70
2019-05-29T00:02:57.751Z,0.80
2019-05-29T00:05:24.795Z,1.10
2019-05-29T00:07:51.900Z,0.97
2019-05-29T00:10:18.992Z,0.67
2019-05-29T00:12:46.099Z,0.97
2019-05-29T00:15:14.478Z,0.80
2019-05-29T00:17:40.382Z,1.00
2019-05-29T00:20:08.314Z,0.70
2019-05-29T00:22:34.558Z,1.07
2019-05-29T00:25:01.657Z,1.07
2019-05-29T00:27:28.805Z,0.90
2019-05-29T00:29:55.945Z,0.83
2019-05-29T00:32:23.057Z,0.80
2019-05-29T00:34:50.152Z,0.93
2019-05-29T00:37:17.281Z,0.90
2019-05-29T00:39:44.407Z,0.70
2019-05-29T00:42:13.205Z,0.83
2019-05-29T00:44:38.697Z,0.77
2019-05-29T00:47:05.873Z,0.77
2019-05-29T00:49:33.014Z,0.73
2019-05-29T00:52:00.165Z,0.70
2019-05-29T00:54:27.319Z,0.70
2019-05-29T00:56:54.430Z,0.77
2019-05-29T00:59:21.511Z,0.93
2019-05-29T01:01:48.596Z,0.70
2019-05-29T01:04:15.787Z,0.60
2019-05-29T01:06:42.838Z,0.80
2019-05-29T01:09:10.364Z,0.80
2019-05-29T01:11:37.195Z,0.70
2019-05-29T01:14:04.344Z,0.60
2019-05-29T01:16:31.528Z,0.50
2019-05-29T01:19:03.337Z,0.60
2019-05-29T01:21:30.447Z,0.70
2019-05-29T01:23:57.632Z,0.63
2019-05-29T01:26:24.775Z,0.80
2019-05-29T01:28:51.932Z,0.70
2019-05-29T01:31:19.367Z,0.60
2019-05-29T01:33:46.302Z,0.70
2019-05-29T01:36:13.861Z,0.63
2019-05-29T01:38:40.487Z,0.50
2019-05-29T01:41:07.677Z,0.77
2019-05-29T01:43:34.801Z,0.50
2019-05-29T01:46:01.942Z,0.80
2019-05-29T01:48:29.103Z,0.70
2019-05-29T01:50:56.244Z,0.70
2019-05-29T01:53:23.753Z,0.67
2019-05-29T01:55:50.554Z,0.40
2019-05-29T01:58:18.015Z,0.63
2019-05-29T02:00:45.364Z,0.50
2019-05-29T02:03:12.438Z,0.60
2019-05-29T02:05:39.489Z,0.40
2019-05-29T02:08:06.658Z,0.60
2019-05-29T02:10:33.823Z,0.57
2019-05-29T02:13:00.986Z,0.60
2019-05-29T02:15:32.540Z,0.60
2019-05-29T02:17:55.299Z,0.70
2019-05-29T02:20:23.188Z,0.50
2019-05-29T02:22:49.545Z,0.60
2019-05-29T02:25:18.021Z,0.90
2019-05-29T02:27:43.776Z,0.57
2019-05-29T02:30:10.908Z,0.53
2019-05-29T02:32:38.028Z,0.70
2019-05-29T02:35:05.140Z,0.60
2019-05-29T02:37:32.244Z,0.50
2019-05-29T02:39:59.312Z,0.70
2019-05-29T02:42:27.055Z,0.50
2019-05-29T02:44:53.538Z,0.70
2019-05-29T02:47:21.672Z,0.50
2019-05-29T02:49:47.787Z,0.80
2019-05-29T02:52:14.894Z,0.73
2019-05-29T02:54:42.088Z,0.77
2019-05-29T02:57:09.207Z,0.93
2019-05-29T02:59:36.318Z,0.70
2019-05-29T03:02:03.429Z,0.70
2019-05-29T03:04:32.540Z,0.70
2019-05-29T03:06:57.760Z,0.60
2019-05-29T03:09:26.482Z,0.70
2019-05-29T03:11:51.979Z,0.80
2019-05-29T03:14:19.071Z,0.70
2019-05-29T03:16:46.157Z,0.67
2019-05-29T03:19:13.316Z,0.70
2019-05-29T03:21:40.528Z,0.70
2019-05-29T03:24:07.692Z,0.50
2019-05-29T03:26:35.183Z,0.60
2019-05-29T03:29:01.908Z,0.60
2019-05-29T03:31:36.966Z,1.00
2019-05-29T03:33:56.290Z,0.60
2019-05-29T03:36:23.352Z,0.80
2019-05-29T03:38:50.505Z,0.50
2019-05-29T03:41:17.616Z,0.50
2019-05-29T03:43:44.748Z,0.57
2019-05-29T03:46:29.053Z,0.50
2019-05-29T03:48:39.134Z,0.63
2019-05-29T03:51:06.316Z,0.60
2019-05-29T03:53:34.281Z,0.60
2019-05-29T03:56:00.613Z,0.67
2019-05-29T03:58:28.891Z,0.70
2019-05-29T04:00:54.873Z,0.50
2019-05-29T04:03:21.957Z,0.50
2019-05-29T04:05:49.076Z,0.60
2019-05-29T04:08:16.260Z,0.60
2019-05-29T04:10:43.453Z,0.40
2019-05-29T04:13:10.600Z,0.50
2019-05-29T04:15:38.653Z,0.50
2019-05-29T04:18:04.927Z,0.40
2019-05-29T04:20:33.609Z,0.60
2019-05-29T04:23:00.231Z,0.73
2019-05-29T04:25:33.171Z,0.70
2019-05-29T04:27:54.446Z,0.50
2019-05-29T04:30:21.526Z,0.90
2019-05-29T04:32:48.723Z,0.60
2019-05-29T04:35:15.868Z,0.57
2019-05-29T04:37:43.037Z,0.70
2019-05-29T04:40:10.152Z,0.97
2019-05-29T04:42:38.107Z,0.80
2019-05-29T04:45:04.865Z,0.90
2019-05-29T04:47:33.309Z,0.67
2019-05-29T04:49:59.255Z,0.87
2019-05-29T04:52:26.332Z,0.80
2019-05-29T04:54:53.516Z,1.20
2019-05-29T04:57:20.624Z,0.70
2019-05-29T04:59:47.778Z,1.10
2019-05-29T05:02:14.975Z,0.70
2019-05-29T05:04:42.166Z,1.00
2019-05-29T05:07:09.233Z,1.00
2019-05-29T05:09:37.467Z,0.73
2019-05-29T05:12:03.476Z,0.60
2019-05-29T05:14:31.499Z,0.83
2019-05-29T05:16:57.664Z,0.80
2019-05-29T05:19:24.734Z,0.80
2019-05-29T05:21:51.840Z,0.97
2019-05-29T05:24:18.929Z,1.17
2019-05-29T05:26:46.043Z,0.80
2019-05-29T05:29:13.103Z,0.70
2019-05-29T05:31:40.757Z,0.77
2019-05-29T05:34:07.411Z,0.90
2019-05-29T05:36:34.767Z,0.80
2019-05-29T05:39:01.723Z,0.90
2019-05-29T05:41:28.793Z,1.00
2019-05-29T05:43:55.908Z,0.90
2019-05-29T05:46:24.833Z,0.83
2019-05-29T05:48:50.158Z,0.73
2019-05-29T05:51:17.315Z,0.90
2019-05-29T05:53:44.451Z,0.90
2019-05-29T05:56:11.624Z,0.83
2019-05-29T05:58:39.941Z,0.90
2019-05-29T06:01:05.932Z,0.53
2019-05-29T06:03:33.971Z,0.70
2019-05-29T06:06:00.124Z,0.67
2019-05-29T06:08:27.187Z,1.07
2019-05-29T06:10:54.304Z,0.50
2019-05-29T06:13:21.474Z,0.90
2019-05-29T06:15:48.625Z,0.83
2019-05-29T06:18:21.463Z,0.97
2019-05-29T06:20:43.287Z,0.80
2019-05-29T06:23:10.148Z,0.90
2019-05-29T06:25:39.065Z,0.70
2019-05-29T06:28:04.456Z,0.70
2019-05-29T06:30:31.627Z,0.83
2019-05-29T06:32:58.848Z,0.80
2019-05-29T06:35:25.927Z,0.90
2019-05-29T06:37:53.093Z,0.80
2019-05-29T06:40:29.073Z,0.73
2019-05-29T06:42:56.254Z,0.67
2019-05-29T06:45:28.915Z,0.80
2019-05-29T06:47:56.033Z,0.67
2019-05-29T06:50:23.179Z,0.80
2019-05-29T06:52:50.310Z,0.80
2019-05-29T06:55:17.464Z,0.63
2019-05-29T06:57:44.660Z,0.70
2019-05-29T07:00:11.753Z,0.63
2019-05-29T07:02:38.933Z,0.70
2019-05-29T07:05:06.042Z,0.87
2019-05-29T07:07:33.207Z,0.60
2019-05-29T07:10:00.321Z,0.70
2019-05-29T07:12:27.441Z,0.53
2019-05-29T07:14:54.525Z,0.80
2019-05-29T07:17:21.656Z,0.83
2019-05-29T07:20:00.760Z,0.50
2019-05-29T07:22:16.036Z,0.70
2019-05-29T07:24:43.502Z,0.50
2019-05-29T07:27:13.336Z,0.63
2019-05-29T07:29:38.913Z,0.73
2019-05-29T07:32:04.630Z,0.70
2019-05-29T07:34:47.400Z,0.70
2019-05-29T07:36:58.849Z,0.80
2019-05-29T07:39:25.988Z,0.80
2019-05-29T07:41:53.093Z,0.50
2019-05-29T07:44:20.205Z,0.40
2019-05-29T07:46:48.748Z,0.80
2019-05-29T07:49:14.493Z,0.60
2019-05-29T07:51:43.299Z,0.80
2019-05-29T07:54:08.811Z,0.80
2019-05-29T07:56:35.950Z,0.80
2019-05-29T07:59:03.740Z,0.70
2019-05-29T08:01:30.628Z,0.60
2019-05-29T08:03:57.293Z,0.60
2019-05-29T08:06:24.370Z,0.60
2019-05-29T08:08:51.610Z,0.60
2019-05-29T08:11:18.757Z,0.40
2019-05-29T08:13:45.951Z,0.67
2019-05-29T08:16:13.083Z,0.50
2019-05-29T08:18:41.682Z,0.50
2019-05-29T08:21:07.511Z,0.57
2019-05-29T08:23:34.635Z,0.40
2019-05-29T08:26:01.767Z,0.50
2019-05-29T08:28:28.917Z,0.40
2019-05-29T08:30:56.682Z,0.40
2019-05-29T08:33:23.213Z,0.50
2019-05-29T08:35:57.885Z,0.50
2019-05-29T08:38:17.518Z,0.37
2019-05-29T08:40:45.121Z,0.40
2019-05-29T08:43:11.764Z,0.57
2019-05-29T08:45:38.931Z,0.53
2019-05-29T08:48:05.998Z,0.40
2019-05-29T08:50:33.195Z,0.30
2019-05-29T08:53:02.502Z,0.60
2019-05-29T08:55:27.392Z,0.50
2019-05-29T08:57:54.561Z,0.60
2019-05-29T09:00:21.697Z,0.40
2019-05-29T09:02:49.387Z,0.50
2019-05-29T09:05:16.043Z,0.40
2019-05-29T09:07:43.607Z,0.37
2019-05-29T09:10:10.223Z,0.50
2019-05-29T09:12:37.369Z,0.40
2019-05-29T09:15:04.789Z,0.50
2019-05-29T09:17:34.441Z,0.33
2019-05-29T09:19:59.231Z,0.40
2019-05-29T09:22:26.343Z,0.60
2019-05-29T09:24:53.460Z,0.40
2019-05-29T09:27:21.218Z,0.27
2019-05-29T09:29:47.728Z,0.67
2019-05-29T09:32:16.589Z,0.30
2019-05-29T09:34:42.065Z,0.30
2019-05-29T09:37:09.177Z,0.60
2019-05-29T09:39:36.402Z,0.60
2019-05-29T09:42:03.525Z,0.40
2019-05-29T09:44:38.411Z,0.40
2019-05-29T09:46:57.974Z,0.50
2019-05-29T09:49:26.051Z,0.57
2019-05-29T09:51:52.676Z,0.50
2019-05-29T09:54:19.475Z,0.47
2019-05-29T09:56:46.561Z,0.30
2019-05-29T09:59:13.646Z,0.50
2019-05-29T10:01:40.771Z,0.40
2019-05-29T10:04:07.908Z,0.37
2019-05-29T10:06:35.075Z,0.47
2019-05-29T10:09:03.641Z,0.40
2019-05-29T10:11:29.402Z,0.40
2019-05-29T10:13:56.990Z,0.30
2019-05-29T10:16:23.629Z,0.40
2019-05-29T10:18:50.804Z,0.50
2019-05-29T10:21:17.915Z,0.30
2019-05-29T10:23:45.115Z,0.33
2019-05-29T10:26:12.215Z,0.33
2019-05-29T10:28:55.622Z,0.40
2019-05-29T10:31:06.803Z,0.40
2019-05-29T10:33:33.911Z,0.40
2019-05-29T10:36:03.975Z,0.73
2019-05-29T10:38:28.250Z,0.37
2019-05-29T10:41:05.819Z,0.50
2019-05-29T10:43:33.861Z,0.30
2019-05-29T10:45:51.940Z,0.50
2019-05-29T10:48:17.236Z,0.30
2019-05-29T10:50:47.771Z,0.30
2019-05-29T10:53:11.477Z,0.50
2019-05-29T10:55:38.560Z,0.40
2019-05-29T10:58:05.676Z,0.40
2019-05-29T11:00:32.739Z,0.33
2019-05-29T11:02:59.852Z,0.40
2019-05-29T11:05:26.883Z,0.37
2019-05-29T11:07:54.095Z,0.57
2019-05-29T11:10:21.123Z,0.40
2019-05-29T11:12:48.442Z,0.30
2019-05-29T11:15:21.366Z,0.30
2019-05-29T11:17:42.555Z,0.50
2019-05-29T11:20:09.608Z,0.50
2019-05-29T11:22:36.681Z,0.30
2019-05-29T11:25:21.142Z,0.47
2019-05-29T11:27:31.189Z,0.40
2019-05-29T11:29:59.102Z,0.33
2019-05-29T11:32:25.549Z,0.50
2019-05-29T11:34:53.851Z,0.40
2019-05-29T11:37:19.775Z,0.40
2019-05-29T11:39:46.917Z,0.50
2019-05-29T11:42:26.937Z,0.30
2019-05-29T11:44:41.255Z,0.43
2019-05-29T11:47:08.318Z,0.50
2019-05-29T11:49:35.411Z,0.47
2019-05-29T11:52:21.449Z,0.40
2019-05-29T11:54:29.785Z,0.50
2019-05-29T11:56:57.384Z,0.60
2019-05-29T11:59:24.047Z,0.50
2019-05-29T12:01:52.598Z,0.70
2019-05-29T12:04:26.448Z,0.80
2019-05-29T12:06:45.532Z,0.80
2019-05-29T12:09:12.757Z,0.30
2019-05-29T12:11:39.899Z,0.47
2019-05-29T12:14:07.019Z,0.50
2019-05-29T12:16:34.149Z,0.50
2019-05-29T12:19:01.940Z,0.60
2019-05-29T12:21:28.427Z,0.70
2019-05-29T12:23:56.128Z,0.67
2019-05-29T12:26:23.417Z,0.80
2019-05-29T12:28:50.030Z,0.70
2019-05-29T12:31:17.135Z,1.00
2019-05-29T12:33:44.255Z,0.60
2019-05-29T12:36:11.367Z,0.90
2019-05-29T12:38:38.484Z,0.90
2019-05-29T12:41:05.596Z,1.10
2019-05-29T12:43:32.779Z,1.07
2019-05-29T12:46:00.190Z,1.00
2019-05-29T12:48:27.124Z,1.40
2019-05-29T12:50:55.973Z,0.70
2019-05-29T12:53:30.096Z,0.90
2019-05-29T12:55:48.519Z,0.90
2019-05-29T12:58:15.719Z,0.80
2019-05-29T13:00:42.888Z,1.10
2019-05-29T13:03:10.029Z,0.97
2019-05-29T13:05:37.079Z,1.20
2019-05-29T13:08:05.154Z,1.07
2019-05-29T13:10:31.425Z,1.07
2019-05-29T13:13:03.843Z,1.30
2019-05-29T13:15:25.699Z,1.10
2019-05-29T13:17:57.234Z,1.00
2019-05-29T13:20:22.186Z,1.13
2019-05-29T13:22:47.135Z,0.77
2019-05-29T13:25:14.203Z,1.00
2019-05-29T13:27:41.273Z,1.10
2019-05-29T13:30:08.478Z,1.17
2019-05-29T13:32:35.720Z,0.97
2019-05-29T13:35:04.243Z,1.00
2019-05-29T13:37:30.590Z,0.80
2019-05-29T13:39:58.002Z,1.20
2019-05-29T13:42:24.947Z,0.90
2019-05-29T13:44:52.624Z,1.17
2019-05-29T13:47:19.236Z,0.90
2019-05-29T13:49:46.346Z,0.80
2019-05-29T13:52:13.475Z,1.20
2019-05-29T13:54:40.655Z,1.00
2019-05-29T13:57:08.746Z,0.93
2019-05-29T13:59:34.956Z,1.10
2019-05-29T14:02:05.340Z,1.00
2019-05-29T14:04:29.392Z,0.93
2019-05-29T14:06:56.527Z,1.20
2019-05-29T14:09:23.781Z,1.10
2019-05-29T14:11:50.914Z,1.27
2019-05-29T14:14:18.061Z,1.07
2019-05-29T14:16:45.260Z,1.17
2019-05-29T14:19:13.532Z,1.03
2019-05-29T14:21:39.608Z,1.10
2019-05-29T14:24:24.378Z,1.40
2019-05-29T14:26:33.865Z,1.10
2019-05-29T14:29:01.426Z,1.30
2019-05-29T14:31:28.212Z,1.00
2019-05-29T14:33:55.383Z,0.97
2019-05-29T14:36:22.518Z,1.20
2019-05-29T14:38:49.666Z,0.80
2019-05-29T14:41:16.759Z,0.97
2019-05-29T14:43:43.883Z,1.00
2019-05-29T14:46:12.089Z,1.40
2019-05-29T14:48:38.145Z,1.00
2019-05-29T14:51:06.478Z,1.37
2019-05-29T14:53:32.512Z,0.80
2019-05-29T14:55:59.631Z,0.90
2019-05-29T14:58:26.720Z,1.10
2019-05-29T15:00:53.905Z,0.90
2019-05-29T15:03:21.028Z,1.07
2019-05-29T15:05:48.226Z,1.00
2019-05-29T15:08:15.336Z,1.00
2019-05-29T15:10:42.499Z,0.90
2019-05-29T15:13:11.068Z,0.93
2019-05-29T15:15:36.747Z,1.23
2019-05-29T15:18:04.912Z,1.10
2019-05-29T15:20:31.107Z,1.10
2019-05-29T15:22:58.215Z,0.97
2019-05-29T15:25:25.287Z,0.77
2019-05-29T15:27:52.427Z,0.93
2019-05-29T15:30:22.983Z,1.00
2019-05-29T15:32:46.799Z,1.50
2019-05-29T15:35:16.613Z,1.10
2019-05-29T15:37:41.024Z,1.40
2019-05-29T15:40:08.813Z,1.40
2019-05-29T15:42:35.343Z,1.30
2019-05-29T15:45:02.456Z,1.30
2019-05-29T15:47:29.639Z,1.07
2019-05-29T15:49:56.840Z,1.23
2019-05-29T15:52:23.990Z,1.10
2019-05-29T15:54:51.146Z,0.90
2019-05-29T15:57:18.296Z,1.03
2019-05-29T15:59:45.441Z,1.20
2019-05-29T16:02:13.689Z,1.00
2019-05-29T16:04:39.780Z,1.00
2019-05-29T16:07:07.858Z,1.00
2019-05-29T16:09:34.019Z,1.13
2019-05-29T16:12:01.208Z,0.90
2019-05-29T16:14:28.405Z,1.00
2019-05-29T16:16:55.553Z,1.00
2019-05-29T16:19:22.731Z,1.03
2019-05-29T16:21:49.951Z,1.00
2019-05-29T16:24:17.095Z,0.90
2019-05-29T16:26:44.252Z,1.10
2019-05-29T16:29:12.309Z,1.10
2019-05-29T16:31:38.510Z,1.13
2019-05-29T16:34:05.739Z,0.90
2019-05-29T16:36:32.901Z,1.03
2019-05-29T16:39:00.054Z,1.07
2019-05-29T16:41:27.218Z,1.07
2019-05-29T16:43:54.384Z,1.00
2019-05-29T16:46:24.270Z,1.10
2019-05-29T16:48:48.649Z,0.70
2019-05-29T16:51:16.707Z,1.03
2019-05-29T16:53:43.018Z,1.00
2019-05-29T16:56:10.196Z,0.93
2019-05-29T16:58:37.341Z,1.00
2019-05-29T17:01:04.448Z,1.20
2019-05-29T17:03:31.572Z,0.60
2019-05-29T17:05:58.708Z,1.10
2019-05-29T17:08:25.891Z,0.80
2019-05-29T17:10:52.999Z,0.80
2019-05-29T17:13:20.666Z,0.80
2019-05-29T17:15:47.275Z,0.80
2019-05-29T17:18:14.788Z,0.87
2019-05-29T17:20:42.680Z,0.90
2019-05-29T17:23:09.768Z,0.90
2019-05-29T17:25:36.857Z,0.87
2019-05-29T17:28:03.989Z,1.10
2019-05-29T17:30:31.118Z,0.87
2019-05-29T17:32:58.296Z,0.60
2019-05-29T17:35:25.399Z,1.00
2019-05-29T17:37:52.532Z,0.80
2019-05-29T17:40:19.606Z,0.70
2019-05-29T17:42:46.716Z,0.80
2019-05-29T17:45:16.475Z,0.70
2019-05-29T17:47:41.045Z,1.13
2019-05-29T17:50:08.193Z,0.80
2019-05-29T17:52:35.259Z,0.90
2019-05-29T17:55:02.679Z,0.90
2019-05-29T17:57:29.808Z,1.00
2019-05-29T17:59:56.891Z,0.93
2019-05-29T18:02:24.471Z,1.10
2019-05-29T18:04:51.203Z,0.80
2019-05-29T18:07:18.438Z,0.97
2019-05-29T18:09:45.499Z,1.10
2019-05-29T18:12:12.672Z,0.90
2019-05-29T18:14:39.855Z,0.90
2019-05-29T18:17:07.012Z,0.73
2019-05-29T18:19:34.182Z,0.83
2019-05-29T18:22:01.312Z,1.00
2019-05-29T18:24:28.451Z,0.80
2019-05-29T18:26:58.926Z,0.60
2019-05-29T18:29:22.854Z,1.20
2019-05-29T18:31:50.025Z,0.80
2019-05-29T18:34:17.130Z,0.80
2019-05-29T18:36:44.242Z,0.80
2019-05-29T18:39:11.336Z,1.10
2019-05-29T18:41:38.436Z,0.90
2019-05-29T18:44:05.508Z,0.67
2019-05-29T18:46:37.578Z,1.00
2019-05-29T18:48:59.899Z,0.80
2019-05-29T18:51:27.072Z,0.90
2019-05-29T18:53:54.175Z,1.13
2019-05-29T18:56:21.884Z,0.70
2019-05-29T18:58:48.441Z,1.00
2019-05-29T19:01:15.538Z,0.90
2019-05-29T19:03:42.725Z,1.13
2019-05-29T19:06:09.944Z,1.10
2019-05-29T19:08:37.128Z,1.03
2019-05-29T19:11:04.206Z,1.00
2019-05-29T19:13:32.061Z,1.10
2019-05-29T19:15:58.397Z,0.80
2019-05-29T19:18:26.017Z,1.13
2019-05-29T19:20:52.681Z,0.90
2019-05-29T19:23:19.882Z,1.40
2019-05-29T19:25:47.071Z,1.07
2019-05-29T19:28:14.329Z,1.33
2019-05-29T19:30:41.382Z,1.27
2019-05-29T19:33:08.499Z,1.00
2019-05-29T19:35:35.668Z,1.53
2019-05-29T19:38:02.846Z,1.10
2019-05-29T19:40:30.222Z,1.20
2019-05-29T19:42:57.089Z,1.40
2019-05-29T19:45:24.635Z,1.07
2019-05-29T19:47:51.430Z,1.20
2019-05-29T19:50:18.556Z,1.10
2019-05-29T19:52:45.734Z,1.20
2019-05-29T19:55:12.857Z,1.30
2019-05-29T19:57:54.842Z,1.50
2019-05-29T20:00:07.306Z,1.40
2019-05-29T20:02:34.719Z,1.20
2019-05-29T20:05:01.582Z,1.13
2019-05-29T20:07:29.012Z,1.10
2019-05-29T20:09:56.002Z,1.27
2019-05-29T20:12:23.215Z,1.10
2019-05-29T20:14:50.391Z,0.90
2019-05-29T20:17:17.533Z,1.23
2019-05-29T20:19:44.623Z,0.90
2019-05-29T20:22:11.872Z,1.43
2019-05-29T20:24:39.148Z,1.30
2019-05-29T20:27:06.113Z,1.43
2019-05-29T20:29:34.390Z,1.50
2019-05-29T20:32:00.432Z,0.90
2019-05-29T20:34:27.605Z,1.20
2019-05-29T20:36:54.804Z,1.00
2019-05-29T20:39:21.980Z,1.07
2019-05-29T20:41:49.048Z,1.17
2019-05-29T20:44:16.152Z,0.97
2019-05-29T20:46:43.319Z,1.20
2019-05-29T20:49:10.474Z,1.50
2019-05-29T20:51:38.240Z,1.27
2019-05-29T20:54:04.660Z,0.93
2019-05-29T20:56:31.803Z,1.50
2019-05-29T20:58:58.948Z,1.30
2019-05-29T21:01:26.091Z,1.10
2019-05-29T21:03:53.300Z,1.20
2019-05-29T21:06:20.657Z,1.00
2019-05-29T21:08:47.789Z,1.40
2019-05-29T21:11:14.950Z,1.07
2019-05-29T21:13:42.077Z,1.13
2019-05-29T21:16:09.181Z,0.93
2019-05-29T21:18:36.250Z,1.30
2019-05-29T21:21:03.343Z,1.20
2019-05-29T21:23:30.445Z,0.90
2019-05-29T21:25:57.571Z,1.20
2019-05-29T21:28:39.310Z,1.23
2019-05-29T21:30:51.855Z,1.50
2019-05-29T21:33:19.042Z,1.20
2019-05-29T21:35:46.351Z,1.30
2019-05-29T21:38:13.304Z,1.50
2019-05-29T21:40:40.467Z,1.27
2019-05-29T21:43:07.616Z,1.20
2019-05-29T21:45:34.809Z,1.40
2019-05-29T21:48:01.950Z,1.40
2019-05-29T21:50:29.120Z,1.30
2019-05-29T21:52:56.232Z,1.70
2019-05-29T21:55:23.297Z,1.30
2019-05-29T21:57:50.544Z,1.30
2019-05-29T22:00:21.162Z,1.43
2019-05-29T22:02:48.532Z,1.30
2019-05-29T22:05:15.471Z,1.30
2019-05-29T22:07:42.879Z,1.03
2019-05-29T22:10:09.687Z,1.23
2019-05-29T22:12:36.777Z,1.57
2019-05-29T22:15:04.334Z,1.20
2019-05-29T22:17:31.233Z,1.00
2019-05-29T22:19:59.033Z,1.00
2019-05-29T22:22:25.404Z,1.10
2019-05-29T22:24:53.075Z,1.17
2019-05-29T22:27:19.676Z,0.93
2019-05-29T22:29:46.751Z,1.30
2019-05-29T22:32:13.847Z,1.33
2019-05-29T22:34:40.982Z,1.17
2019-05-29T22:37:08.108Z,1.50
2019-05-29T22:39:35.321Z,1.30
2019-05-29T22:42:02.479Z,1.00
2019-05-29T22:44:29.668Z,1.40
2019-05-29T22:46:57.823Z,1.07
2019-05-29T22:49:23.979Z,1.20
2019-05-29T22:51:51.697Z,0.70
2019-05-29T22:54:18.391Z,1.03
2019-05-29T22:56:45.563Z,1.10
2019-05-29T22:59:12.759Z,0.80
2019-05-29T23:01:39.922Z,1.20
2019-05-29T23:04:07.016Z,1.20
2019-05-29T23:06:34.173Z,0.90
2019-05-29T23:09:02.501Z,1.07
2019-05-29T23:11:28.511Z,1.10
2019-05-29T23:13:56.216Z,1.20
2019-05-29T23:16:22.825Z,0.90
2019-05-29T23:18:49.938Z,1.10
2019-05-29T23:21:17.095Z,0.93
2019-05-29T23:23:44.247Z,1.13
2019-05-29T23:26:11.374Z,0.77
2019-05-29T23:28:38.519Z,1.10
2019-05-29T23:31:05.594Z,1.30
2019-05-29T23:33:32.709Z,1.00
2019-05-29T23:36:01.097Z,1.10
2019-05-29T23:38:26.995Z,0.93
2019-05-29T23:40:55.264Z,1.10
2019-05-29T23:43:21.325Z,0.80
2019-05-29T23:45:48.539Z,0.80
2019-05-29T23:48:15.660Z,1.00
2019-05-29T23:50:42.804Z,1.13
2019-05-29T23:53:09.856Z,1.17
2019-05-29T23:55:37.018Z,1.13
2019-05-29T23:58:10.725Z,0.87
